sensor_id;sensor_type;location;lat;lon;timestamp;temperature;humidity
52725;DHT22;38621;52.830;6.914;2022-12-18T00:00:40;-3.10;99.90
52725;DHT22;38621;52.830;6.914;2022-12-18T00:03:06;-3.90;99.90
52725;DHT22;38621;52.830;6.914;2022-12-18T00:05:32;-3.90;99.90
52725;DHT22;38621;52.830;6.914;2022-12-18T00:07:58;-4.00;99.90
52725;DHT22;38621;52.830;6.914;2022-12-18T00:10:23;-4.00;99.90
52725;DHT22;38621;52.830;6.914;2022-12-18T00:12:49;-4.10;99.90
52725;DHT22;38621;52.830;6.914;2022-12-18T00:15:15;-4.10;99.90
52725;DHT22;38621;52.830;6.914;2022-12-18T00:17:40;-4.10;99.90
52725;DHT22;38621;52.830;6.914;2022-12-18T00:20:07;-4.20;99.90
52725;DHT22;38621;52.830;6.914;2022-12-18T00:22:32;-4.10;99.90
52725;DHT22;38621;52.830;6.914;2022-12-18T00:24:58;-4.10;99.90
52725;DHT22;38621;52.830;6.914;2022-12-18T00:27:24;-4.20;99.90
52725;DHT22;38621;52.830;6.914;2022-12-18T00:29:50;-4.20;99.90
52725;DHT22;38621;52.830;6.914;2022-12-18T00:32:15;-4.30;99.90
52725;DHT22;38621;52.830;6.914;2022-12-18T00:34:41;-4.30;99.90
52725;DHT22;38621;52.830;6.914;2022-12-18T00:37:07;-4.30;99.90
52725;DHT22;38621;52.830;6.914;2022-12-18T00:39:32;-4.30;99.90
52725;DHT22;38621;52.830;6.914;2022-12-18T00:41:58;-4.30;99.90
52725;DHT22;38621;52.830;6.914;2022-12-18T00:44:42;-4.30;99.90
52725;DHT22;38621;52.830;6.914;2022-12-18T00:47:08;-4.30;99.90
52725;DHT22;38621;52.830;6.914;2022-12-18T00:49:33;-4.40;99.90
52725;DHT22;38621;52.830;6.914;2022-12-18T00:51:59;-4.50;99.90
52725;DHT22;38621;52.830;6.914;2022-12-18T00:54:25;-4.50;99.90
52725;DHT22;38621;52.830;6.914;2022-12-18T00:56:51;-4.50;99.90
52725;DHT22;38621;52.830;6.914;2022-12-18T00:59:17;-4.50;99.90
52725;DHT22;38621;52.830;6.914;2022-12-18T01:01:43;-4.00;99.90
52725;DHT22;38621;52.830;6.914;2022-12-18T01:04:09;-4.60;99.90
52725;DHT22;38621;52.830;6.914;2022-12-18T01:06:35;-4.60;99.90
52725;DHT22;38621;52.830;6.914;2022-12-18T01:09:00;-4.50;99.90
52725;DHT22;38621;52.830;6.914;2022-12-18T01:11:26;-4.60;99.90
52725;DHT22;38621;52.830;6.914;2022-12-18T01:13:53;-4.50;99.90
52725;DHT22;38621;52.830;6.914;2022-12-18T01:16:19;-4.60;99.90
52725;DHT22;38621;52.830;6.914;2022-12-18T01:18:45;-4.50;99.90
52725;DHT22;38621;52.830;6.914;2022-12-18T01:21:14;-4.50;99.90
52725;DHT22;38621;52.830;6.914;2022-12-18T01:23:39;-4.60;99.90
52725;DHT22;38621;52.830;6.914;2022-12-18T01:26:11;-4.60;99.90
52725;DHT22;38621;52.830;6.914;2022-12-18T01:28:37;-4.60;99.90
52725;DHT22;38621;52.830;6.914;2022-12-18T01:31:31;-4.60;99.90
52725;DHT22;38621;52.830;6.914;2022-12-18T01:33:57;-4.60;99.90
52725;DHT22;38621;52.830;6.914;2022-12-18T01:36:25;-4.60;99.90
52725;DHT22;38621;52.830;6.914;2022-12-18T01:38:51;-4.60;99.90
52725;DHT22;38621;52.830;6.914;2022-12-18T01:41:22;-4.60;99.90
52725;DHT22;38621;52.830;6.914;2022-12-18T01:46:16;-4.70;99.90
52725;DHT22;38621;52.830;6.914;2022-12-18T01:48:44;-4.70;99.90
52725;DHT22;38621;52.830;6.914;2022-12-18T01:51:11;-4.70;99.90
52725;DHT22;38621;52.830;6.914;2022-12-18T01:53:39;-4.80;99.90
52725;DHT22;38621;52.830;6.914;2022-12-18T01:56:06;-4.80;99.90
52725;DHT22;38621;52.830;6.914;2022-12-18T02:01:06;-4.90;99.90
52725;DHT22;38621;52.830;6.914;2022-12-18T02:03:32;-4.90;99.90
52725;DHT22;38621;52.830;6.914;2022-12-18T02:06:13;-4.90;99.90
52725;DHT22;38621;52.830;6.914;2022-12-18T02:08:45;-4.90;99.90
52725;DHT22;38621;52.830;6.914;2022-12-18T02:11:23;-5.00;99.90
52725;DHT22;38621;52.830;6.914;2022-12-18T02:17:06;-5.10;99.90
52725;DHT22;38621;52.830;6.914;2022-12-18T02:28:00;-5.20;99.90
52725;DHT22;38621;52.830;6.914;2022-12-18T02:30:30;-5.30;99.90
52725;DHT22;38621;52.830;6.914;2022-12-18T02:32:58;-5.30;99.90
52725;DHT22;38621;52.830;6.914;2022-12-18T02:35:27;-5.30;99.90
52725;DHT22;38621;52.830;6.914;2022-12-18T02:37:54;-5.40;99.90
52725;DHT22;38621;52.830;6.914;2022-12-18T02:40:22;-4.10;99.90
52725;DHT22;38621;52.830;6.914;2022-12-18T02:42:49;-5.40;99.90
52725;DHT22;38621;52.830;6.914;2022-12-18T02:45:15;-5.50;99.90
52725;DHT22;38621;52.830;6.914;2022-12-18T02:47:42;-5.50;99.90
52725;DHT22;38621;52.830;6.914;2022-12-18T02:50:19;-5.60;99.90
52725;DHT22;38621;52.830;6.914;2022-12-18T02:56:00;-4.50;99.90
52725;DHT22;38621;52.830;6.914;2022-12-18T02:58:43;-5.60;99.90
52725;DHT22;38621;52.830;6.914;2022-12-18T03:01:24;-5.60;99.90
52725;DHT22;38621;52.830;6.914;2022-12-18T03:03:58;-5.60;99.90
52725;DHT22;38621;52.830;6.914;2022-12-18T03:07:08;-4.80;99.90
52725;DHT22;38621;52.830;6.914;2022-12-18T03:09:18;-5.60;99.90
52725;DHT22;38621;52.830;6.914;2022-12-18T03:11:51;-5.60;99.90
52725;DHT22;38621;52.830;6.914;2022-12-18T03:14:38;-5.60;99.90
52725;DHT22;38621;52.830;6.914;2022-12-18T03:17:09;-5.60;99.90
52725;DHT22;38621;52.830;6.914;2022-12-18T03:19:35;-5.60;99.90
52725;DHT22;38621;52.830;6.914;2022-12-18T03:22:03;-5.40;99.90
52725;DHT22;38621;52.830;6.914;2022-12-18T03:24:31;-5.70;99.90
52725;DHT22;38621;52.830;6.914;2022-12-18T03:27:01;-5.60;99.90
52725;DHT22;38621;52.830;6.914;2022-12-18T03:32:04;-5.60;99.90
52725;DHT22;38621;52.830;6.914;2022-12-18T03:34:34;-5.60;99.90
52725;DHT22;38621;52.830;6.914;2022-12-18T03:37:01;-5.60;99.90
52725;DHT22;38621;52.830;6.914;2022-12-18T03:39:27;-5.60;99.90
52725;DHT22;38621;52.830;6.914;2022-12-18T03:42:05;-5.60;99.90
52725;DHT22;38621;52.830;6.914;2022-12-18T03:44:44;-5.60;99.90
52725;DHT22;38621;52.830;6.914;2022-12-18T03:47:20;-5.60;99.90
52725;DHT22;38621;52.830;6.914;2022-12-18T03:52:29;-5.70;99.90
52725;DHT22;38621;52.830;6.914;2022-12-18T03:54:58;-5.70;99.90
52725;DHT22;38621;52.830;6.914;2022-12-18T03:57:28;-5.70;99.90
52725;DHT22;38621;52.830;6.914;2022-12-18T04:00:01;-5.70;99.90
52725;DHT22;38621;52.830;6.914;2022-12-18T04:02:28;-5.70;99.90
52725;DHT22;38621;52.830;6.914;2022-12-18T04:04:58;-5.40;99.90
52725;DHT22;38621;52.830;6.914;2022-12-18T04:07:24;-5.80;99.90
52725;DHT22;38621;52.830;6.914;2022-12-18T04:09:53;-5.80;99.90
52725;DHT22;38621;52.830;6.914;2022-12-18T04:12:23;-5.80;99.90
52725;DHT22;38621;52.830;6.914;2022-12-18T04:14:49;-5.90;99.90
52725;DHT22;38621;52.830;6.914;2022-12-18T04:17:14;-5.80;99.90
52725;DHT22;38621;52.830;6.914;2022-12-18T04:19:40;-5.90;99.90
52725;DHT22;38621;52.830;6.914;2022-12-18T04:22:06;-5.90;99.90
52725;DHT22;38621;52.830;6.914;2022-12-18T04:24:31;-5.90;99.90
52725;DHT22;38621;52.830;6.914;2022-12-18T04:26:57;-6.00;99.90
52725;DHT22;38621;52.830;6.914;2022-12-18T04:29:23;-6.00;99.90
52725;DHT22;38621;52.830;6.914;2022-12-18T04:31:48;-6.00;99.90
52725;DHT22;38621;52.830;6.914;2022-12-18T04:34:14;-6.00;99.90
52725;DHT22;38621;52.830;6.914;2022-12-18T04:36:40;-6.10;99.90
52725;DHT22;38621;52.830;6.914;2022-12-18T04:39:05;-6.00;99.90
52725;DHT22;38621;52.830;6.914;2022-12-18T04:41:31;-6.00;99.90
52725;DHT22;38621;52.830;6.914;2022-12-18T04:43:57;-6.30;99.90
52725;DHT22;38621;52.830;6.914;2022-12-18T04:46:22;-6.00;99.90
52725;DHT22;38621;52.830;6.914;2022-12-18T04:48:48;-6.00;99.90
52725;DHT22;38621;52.830;6.914;2022-12-18T04:51:14;-6.00;99.90
52725;DHT22;38621;52.830;6.914;2022-12-18T04:53:39;-6.00;99.90
52725;DHT22;38621;52.830;6.914;2022-12-18T04:56:15;-6.00;99.90
52725;DHT22;38621;52.830;6.914;2022-12-18T04:58:43;-6.00;99.90
52725;DHT22;38621;52.830;6.914;2022-12-18T05:01:10;-6.00;99.90
52725;DHT22;38621;52.830;6.914;2022-12-18T05:03:36;-6.00;99.90
52725;DHT22;38621;52.830;6.914;2022-12-18T05:06:03;-6.00;99.90
52725;DHT22;38621;52.830;6.914;2022-12-18T05:08:29;-6.10;99.90
52725;DHT22;38621;52.830;6.914;2022-12-18T05:11:14;-6.10;99.90
52725;DHT22;38621;52.830;6.914;2022-12-18T05:13:42;-6.10;99.90
52725;DHT22;38621;52.830;6.914;2022-12-18T05:16:08;-6.10;99.90
52725;DHT22;38621;52.830;6.914;2022-12-18T05:18:34;-6.10;99.90
52725;DHT22;38621;52.830;6.914;2022-12-18T05:21:00;-6.10;99.90
52725;DHT22;38621;52.830;6.914;2022-12-18T05:23:26;-6.10;99.90
52725;DHT22;38621;52.830;6.914;2022-12-18T05:25:53;-6.10;99.90
52725;DHT22;38621;52.830;6.914;2022-12-18T05:28:19;-6.10;99.90
52725;DHT22;38621;52.830;6.914;2022-12-18T05:30:49;-6.10;99.90
52725;DHT22;38621;52.830;6.914;2022-12-18T05:33:16;-6.10;99.90
52725;DHT22;38621;52.830;6.914;2022-12-18T05:35:42;-6.30;99.90
52725;DHT22;38621;52.830;6.914;2022-12-18T05:38:08;-6.10;99.90
52725;DHT22;38621;52.830;6.914;2022-12-18T05:40:33;-6.10;99.90
52725;DHT22;38621;52.830;6.914;2022-12-18T05:42:59;-6.10;99.90
52725;DHT22;38621;52.830;6.914;2022-12-18T05:45:25;-6.10;99.90
52725;DHT22;38621;52.830;6.914;2022-12-18T05:47:50;-6.10;99.90
52725;DHT22;38621;52.830;6.914;2022-12-18T05:50:16;-6.20;99.90
52725;DHT22;38621;52.830;6.914;2022-12-18T05:52:42;-6.20;99.90
52725;DHT22;38621;52.830;6.914;2022-12-18T05:55:07;-6.30;99.90
52725;DHT22;38621;52.830;6.914;2022-12-18T05:57:33;-6.50;99.90
52725;DHT22;38621;52.830;6.914;2022-12-18T05:59:59;-6.50;99.90
52725;DHT22;38621;52.830;6.914;2022-12-18T06:02:24;-6.50;99.90
52725;DHT22;38621;52.830;6.914;2022-12-18T06:04:50;-6.50;99.90
52725;DHT22;38621;52.830;6.914;2022-12-18T06:07:16;-6.50;99.90
52725;DHT22;38621;52.830;6.914;2022-12-18T06:09:41;-6.50;99.90
52725;DHT22;38621;52.830;6.914;2022-12-18T06:12:07;-6.50;99.90
52725;DHT22;38621;52.830;6.914;2022-12-18T06:14:33;-6.60;99.90
52725;DHT22;38621;52.830;6.914;2022-12-18T06:16:58;-6.60;99.90
52725;DHT22;38621;52.830;6.914;2022-12-18T06:19:24;-6.60;99.90
52725;DHT22;38621;52.830;6.914;2022-12-18T06:21:50;-6.50;99.90
52725;DHT22;38621;52.830;6.914;2022-12-18T06:24:16;-6.50;99.90
52725;DHT22;38621;52.830;6.914;2022-12-18T06:26:42;-6.40;99.90
52725;DHT22;38621;52.830;6.914;2022-12-18T06:29:07;-6.40;99.90
52725;DHT22;38621;52.830;6.914;2022-12-18T06:31:33;-6.40;99.90
52725;DHT22;38621;52.830;6.914;2022-12-18T06:34:01;-6.40;99.90
52725;DHT22;38621;52.830;6.914;2022-12-18T06:36:26;-6.40;99.90
52725;DHT22;38621;52.830;6.914;2022-12-18T06:38:52;-6.40;99.90
52725;DHT22;38621;52.830;6.914;2022-12-18T06:41:20;-6.40;99.90
52725;DHT22;38621;52.830;6.914;2022-12-18T06:43:45;-6.30;99.90
52725;DHT22;38621;52.830;6.914;2022-12-18T06:46:12;-6.40;99.90
52725;DHT22;38621;52.830;6.914;2022-12-18T06:48:38;-6.40;99.90
52725;DHT22;38621;52.830;6.914;2022-12-18T06:51:04;-6.40;99.90
52725;DHT22;38621;52.830;6.914;2022-12-18T06:53:31;-6.50;99.90
52725;DHT22;38621;52.830;6.914;2022-12-18T06:56:06;-6.60;99.90
52725;DHT22;38621;52.830;6.914;2022-12-18T06:58:32;-6.60;99.90
52725;DHT22;38621;52.830;6.914;2022-12-18T07:01:03;-6.60;99.90
52725;DHT22;38621;52.830;6.914;2022-12-18T07:03:29;-6.70;99.90
52725;DHT22;38621;52.830;6.914;2022-12-18T07:05:56;-6.70;99.90
52725;DHT22;38621;52.830;6.914;2022-12-18T07:08:22;-6.80;99.90
52725;DHT22;38621;52.830;6.914;2022-12-18T07:10:47;-6.90;99.90
52725;DHT22;38621;52.830;6.914;2022-12-18T07:13:15;-6.90;99.90
52725;DHT22;38621;52.830;6.914;2022-12-18T07:15:41;-6.90;99.90
52725;DHT22;38621;52.830;6.914;2022-12-18T07:18:07;-7.00;99.90
52725;DHT22;38621;52.830;6.914;2022-12-18T07:20:32;-7.00;99.90
52725;DHT22;38621;52.830;6.914;2022-12-18T07:22:58;-7.00;99.90
52725;DHT22;38621;52.830;6.914;2022-12-18T07:25:24;-7.00;99.90
52725;DHT22;38621;52.830;6.914;2022-12-18T07:27:49;-7.00;99.90
52725;DHT22;38621;52.830;6.914;2022-12-18T07:30:15;-6.90;99.90
52725;DHT22;38621;52.830;6.914;2022-12-18T07:32:41;-6.50;99.90
52725;DHT22;38621;52.830;6.914;2022-12-18T07:35:06;-7.00;99.90
52725;DHT22;38621;52.830;6.914;2022-12-18T07:37:32;-6.80;99.90
52725;DHT22;38621;52.830;6.914;2022-12-18T07:39:58;-7.00;99.90
52725;DHT22;38621;52.830;6.914;2022-12-18T07:42:24;-6.90;99.90
52725;DHT22;38621;52.830;6.914;2022-12-18T07:44:56;-6.90;99.90
52725;DHT22;38621;52.830;6.914;2022-12-18T07:47:22;-6.80;99.90
52725;DHT22;38621;52.830;6.914;2022-12-18T07:49:48;-6.70;99.90
52725;DHT22;38621;52.830;6.914;2022-12-18T07:52:13;-6.60;99.90
52725;DHT22;38621;52.830;6.914;2022-12-18T07:54:39;-6.50;99.90
52725;DHT22;38621;52.830;6.914;2022-12-18T07:57:06;-6.40;99.90
52725;DHT22;38621;52.830;6.914;2022-12-18T07:59:31;-6.30;99.90
52725;DHT22;38621;52.830;6.914;2022-12-18T08:01:57;-6.30;99.90
52725;DHT22;38621;52.830;6.914;2022-12-18T08:04:24;-6.20;99.90
52725;DHT22;38621;52.830;6.914;2022-12-18T08:06:50;-6.20;99.90
52725;DHT22;38621;52.830;6.914;2022-12-18T08:09:16;-6.10;99.90
52725;DHT22;38621;52.830;6.914;2022-12-18T08:11:42;-6.00;99.90
52725;DHT22;38621;52.830;6.914;2022-12-18T08:14:07;-6.00;99.90
52725;DHT22;38621;52.830;6.914;2022-12-18T08:16:34;-5.90;99.90
52725;DHT22;38621;52.830;6.914;2022-12-18T08:18:59;-5.80;99.90
52725;DHT22;38621;52.830;6.914;2022-12-18T08:21:28;-5.20;99.90
52725;DHT22;38621;52.830;6.914;2022-12-18T08:23:56;-5.60;99.90
52725;DHT22;38621;52.830;6.914;2022-12-18T08:26:22;-5.60;99.90
52725;DHT22;38621;52.830;6.914;2022-12-18T08:28:49;-6.70;99.90
52725;DHT22;38621;52.830;6.914;2022-12-18T08:31:15;-5.40;99.90
52725;DHT22;38621;52.830;6.914;2022-12-18T08:33:41;-5.40;99.90
52725;DHT22;38621;52.830;6.914;2022-12-18T08:36:09;-5.30;99.90
52725;DHT22;38621;52.830;6.914;2022-12-18T08:38:35;-5.30;99.90
52725;DHT22;38621;52.830;6.914;2022-12-18T08:41:03;-5.20;99.90
52725;DHT22;38621;52.830;6.914;2022-12-18T08:43:29;-5.20;99.90
52725;DHT22;38621;52.830;6.914;2022-12-18T08:46:14;-5.10;99.90
52725;DHT22;38621;52.830;6.914;2022-12-18T08:48:40;-5.10;99.90
52725;DHT22;38621;52.830;6.914;2022-12-18T08:51:05;-5.10;99.90
52725;DHT22;38621;52.830;6.914;2022-12-18T08:53:31;-5.10;99.90
52725;DHT22;38621;52.830;6.914;2022-12-18T08:55:57;-5.10;99.90
52725;DHT22;38621;52.830;6.914;2022-12-18T08:58:23;-5.00;99.90
52725;DHT22;38621;52.830;6.914;2022-12-18T09:00:49;-5.00;99.90
52725;DHT22;38621;52.830;6.914;2022-12-18T09:03:17;-4.90;99.90
52725;DHT22;38621;52.830;6.914;2022-12-18T09:05:43;-4.80;99.90
52725;DHT22;38621;52.830;6.914;2022-12-18T09:08:10;-4.80;99.90
52725;DHT22;38621;52.830;6.914;2022-12-18T09:10:47;-4.70;99.90
52725;DHT22;38621;52.830;6.914;2022-12-18T09:13:13;-4.60;99.90
52725;DHT22;38621;52.830;6.914;2022-12-18T09:15:44;-4.50;99.90
52725;DHT22;38621;52.830;6.914;2022-12-18T09:18:11;-4.40;99.90
52725;DHT22;38621;52.830;6.914;2022-12-18T09:20:38;-4.30;99.90
52725;DHT22;38621;52.830;6.914;2022-12-18T09:23:04;-4.20;99.90
52725;DHT22;38621;52.830;6.914;2022-12-18T09:25:31;-4.10;99.90
52725;DHT22;38621;52.830;6.914;2022-12-18T09:28:03;-4.00;99.90
52725;DHT22;38621;52.830;6.914;2022-12-18T09:30:29;-4.00;99.90
52725;DHT22;38621;52.830;6.914;2022-12-18T09:32:55;-3.90;99.90
52725;DHT22;38621;52.830;6.914;2022-12-18T09:35:21;-3.90;99.90
52725;DHT22;38621;52.830;6.914;2022-12-18T09:37:46;-3.80;99.90
52725;DHT22;38621;52.830;6.914;2022-12-18T09:40:18;-3.80;99.90
52725;DHT22;38621;52.830;6.914;2022-12-18T09:42:52;-3.80;99.90
52725;DHT22;38621;52.830;6.914;2022-12-18T09:45:19;-3.70;99.90
52725;DHT22;38621;52.830;6.914;2022-12-18T09:47:46;-3.70;99.90
52725;DHT22;38621;52.830;6.914;2022-12-18T09:50:34;-3.60;99.90
52725;DHT22;38621;52.830;6.914;2022-12-18T09:53:02;-3.40;99.90
52725;DHT22;38621;52.830;6.914;2022-12-18T09:55:34;-3.40;99.90
52725;DHT22;38621;52.830;6.914;2022-12-18T09:58:15;-3.30;99.90
52725;DHT22;38621;52.830;6.914;2022-12-18T10:00:42;-3.20;99.90
52725;DHT22;38621;52.830;6.914;2022-12-18T10:03:10;-3.10;99.90
52725;DHT22;38621;52.830;6.914;2022-12-18T10:05:37;-3.20;99.90
52725;DHT22;38621;52.830;6.914;2022-12-18T10:08:13;-2.90;99.90
52725;DHT22;38621;52.830;6.914;2022-12-18T10:10:53;-2.70;99.90
52725;DHT22;38621;52.830;6.914;2022-12-18T10:19:08;-1.60;99.90
52725;DHT22;38621;52.830;6.914;2022-12-18T10:27:26;0.70;99.90
52725;DHT22;38621;52.830;6.914;2022-12-18T10:29:53;0.60;99.90
52725;DHT22;38621;52.830;6.914;2022-12-18T10:32:22;0.10;99.90
52725;DHT22;38621;52.830;6.914;2022-12-18T10:34:50;-0.40;99.90
52725;DHT22;38621;52.830;6.914;2022-12-18T10:37:19;-0.80;99.90
52725;DHT22;38621;52.830;6.914;2022-12-18T10:39:46;-1.20;99.90
52725;DHT22;38621;52.830;6.914;2022-12-18T10:42:19;-1.40;99.90
52725;DHT22;38621;52.830;6.914;2022-12-18T10:44:45;-1.70;99.90
52725;DHT22;38621;52.830;6.914;2022-12-18T10:47:15;-1.10;99.90
52725;DHT22;38621;52.830;6.914;2022-12-18T10:49:49;-1.90;99.90
52725;DHT22;38621;52.830;6.914;2022-12-18T10:52:18;-1.90;99.90
52725;DHT22;38621;52.830;6.914;2022-12-18T10:54:57;-2.00;99.90
52725;DHT22;38621;52.830;6.914;2022-12-18T10:59:59;-1.70;99.90
52725;DHT22;38621;52.830;6.914;2022-12-18T11:02:37;-2.10;99.90
52725;DHT22;38621;52.830;6.914;2022-12-18T11:07:49;-2.10;99.90
52725;DHT22;38621;52.830;6.914;2022-12-18T11:10:32;-2.10;99.90
52725;DHT22;38621;52.830;6.914;2022-12-18T11:13:20;-2.20;99.90
52725;DHT22;38621;52.830;6.914;2022-12-18T11:15:46;-2.20;99.90
52725;DHT22;38621;52.830;6.914;2022-12-18T11:18:38;-2.20;99.90
52725;DHT22;38621;52.830;6.914;2022-12-18T11:21:09;-2.20;99.90
52725;DHT22;38621;52.830;6.914;2022-12-18T11:23:49;-2.20;99.90
52725;DHT22;38621;52.830;6.914;2022-12-18T11:26:16;-2.10;99.90
52725;DHT22;38621;52.830;6.914;2022-12-18T11:28:49;-2.10;99.90
52725;DHT22;38621;52.830;6.914;2022-12-18T11:31:26;-2.10;99.90
52725;DHT22;38621;52.830;6.914;2022-12-18T11:34:12;-2.10;99.90
52725;DHT22;38621;52.830;6.914;2022-12-18T11:36:45;-2.00;99.90
52725;DHT22;38621;52.830;6.914;2022-12-18T11:42:10;-1.90;99.90
52725;DHT22;38621;52.830;6.914;2022-12-18T11:47:27;-1.90;99.90
52725;DHT22;38621;52.830;6.914;2022-12-18T11:49:58;-1.80;99.90
52725;DHT22;38621;52.830;6.914;2022-12-18T11:52:44;-1.80;99.90
52725;DHT22;38621;52.830;6.914;2022-12-18T11:55:14;-1.80;99.90
52725;DHT22;38621;52.830;6.914;2022-12-18T11:57:50;-1.80;99.90
52725;DHT22;38621;52.830;6.914;2022-12-18T12:00:19;-1.70;99.90
52725;DHT22;38621;52.830;6.914;2022-12-18T12:21:42;-1.60;99.90
52725;DHT22;38621;52.830;6.914;2022-12-18T12:24:35;-1.50;99.90
52725;DHT22;38621;52.830;6.914;2022-12-18T12:30:05;-1.50;99.90
52725;DHT22;38621;52.830;6.914;2022-12-18T12:35:22;-1.50;99.90
52725;DHT22;38621;52.830;6.914;2022-12-18T12:38:06;-1.40;99.90
52725;DHT22;38621;52.830;6.914;2022-12-18T12:40:38;-1.40;99.90
52725;DHT22;38621;52.830;6.914;2022-12-18T12:43:38;-1.40;99.90
52725;DHT22;38621;52.830;6.914;2022-12-18T12:46:09;-1.40;99.90
52725;DHT22;38621;52.830;6.914;2022-12-18T12:48:45;-1.40;99.90
52725;DHT22;38621;52.830;6.914;2022-12-18T12:51:21;-1.20;99.90
52725;DHT22;38621;52.830;6.914;2022-12-18T12:53:48;-1.40;99.90
52725;DHT22;38621;52.830;6.914;2022-12-18T12:56:19;-1.40;99.90
52725;DHT22;38621;52.830;6.914;2022-12-18T13:09:05;-1.20;99.90
52725;DHT22;38621;52.830;6.914;2022-12-18T13:11:38;-1.20;99.90
52725;DHT22;38621;52.830;6.914;2022-12-18T13:14:41;-1.20;99.90
52725;DHT22;38621;52.830;6.914;2022-12-18T13:20:02;-1.20;99.90
52725;DHT22;38621;52.830;6.914;2022-12-18T13:22:34;-1.20;99.90
52725;DHT22;38621;52.830;6.914;2022-12-18T13:25:00;-1.10;99.90
52725;DHT22;38621;52.830;6.914;2022-12-18T13:38:37;-1.10;99.90
52725;DHT22;38621;52.830;6.914;2022-12-18T13:46:44;-1.00;99.90
52725;DHT22;38621;52.830;6.914;2022-12-18T13:51:44;-1.20;99.90
52725;DHT22;38621;52.830;6.914;2022-12-18T13:56:49;-0.30;99.90
52725;DHT22;38621;52.830;6.914;2022-12-18T13:59:36;-1.20;99.90
52725;DHT22;38621;52.830;6.914;2022-12-18T14:02:22;-1.20;99.90
52725;DHT22;38621;52.830;6.914;2022-12-18T14:04:50;-1.20;99.90
52725;DHT22;38621;52.830;6.914;2022-12-18T14:07:26;-1.30;99.90
52725;DHT22;38621;52.830;6.914;2022-12-18T14:09:55;-1.20;99.90
52725;DHT22;38621;52.830;6.914;2022-12-18T14:12:28;-1.30;99.90
52725;DHT22;38621;52.830;6.914;2022-12-18T14:17:55;-1.30;99.90
52725;DHT22;38621;52.830;6.914;2022-12-18T14:20:22;-1.40;99.90
52725;DHT22;38621;52.830;6.914;2022-12-18T14:22:49;-1.40;99.90
52725;DHT22;38621;52.830;6.914;2022-12-18T14:25:19;-1.40;99.90
52725;DHT22;38621;52.830;6.914;2022-12-18T14:30:40;-1.20;99.90
52725;DHT22;38621;52.830;6.914;2022-12-18T14:33:26;-1.50;99.90
52725;DHT22;38621;52.830;6.914;2022-12-18T14:35:56;-1.60;99.90
52725;DHT22;38621;52.830;6.914;2022-12-18T14:41:04;-1.60;99.90
52725;DHT22;38621;52.830;6.914;2022-12-18T14:43:39;-1.70;99.90
52725;DHT22;38621;52.830;6.914;2022-12-18T14:51:49;-1.70;99.90
52725;DHT22;38621;52.830;6.914;2022-12-18T14:54:17;-1.70;99.90
52725;DHT22;38621;52.830;6.914;2022-12-18T14:56:49;-1.70;99.90
52725;DHT22;38621;52.830;6.914;2022-12-18T14:59:23;-1.70;99.90
52725;DHT22;38621;52.830;6.914;2022-12-18T15:04:37;-1.70;99.90
52725;DHT22;38621;52.830;6.914;2022-12-18T15:07:16;-1.70;99.90
52725;DHT22;38621;52.830;6.914;2022-12-18T15:09:44;-1.70;99.90
52725;DHT22;38621;52.830;6.914;2022-12-18T15:12:36;-1.00;99.90
52725;DHT22;38621;52.830;6.914;2022-12-18T15:15:03;-1.70;99.90
52725;DHT22;38621;52.830;6.914;2022-12-18T15:17:29;-2.10;99.90
52725;DHT22;38621;52.830;6.914;2022-12-18T15:20:00;-1.80;99.90
52725;DHT22;38621;52.830;6.914;2022-12-18T15:22:27;-1.80;99.90
52725;DHT22;38621;52.830;6.914;2022-12-18T15:24:55;-1.60;99.90
52725;DHT22;38621;52.830;6.914;2022-12-18T15:27:35;-1.80;99.90
52725;DHT22;38621;52.830;6.914;2022-12-18T15:32:36;-1.80;99.90
52725;DHT22;38621;52.830;6.914;2022-12-18T15:37:34;-1.80;99.90
52725;DHT22;38621;52.830;6.914;2022-12-18T15:39:59;-1.80;99.90
52725;DHT22;38621;52.830;6.914;2022-12-18T15:42:25;-1.80;99.90
52725;DHT22;38621;52.830;6.914;2022-12-18T15:45:13;-1.80;99.90
52725;DHT22;38621;52.830;6.914;2022-12-18T15:47:39;-1.70;99.90
52725;DHT22;38621;52.830;6.914;2022-12-18T15:50:05;-1.70;99.90
52725;DHT22;38621;52.830;6.914;2022-12-18T15:52:44;-1.70;99.90
52725;DHT22;38621;52.830;6.914;2022-12-18T15:55:15;-1.70;99.90
52725;DHT22;38621;52.830;6.914;2022-12-18T15:58:00;-1.70;99.90
52725;DHT22;38621;52.830;6.914;2022-12-18T16:00:26;-1.70;99.90
52725;DHT22;38621;52.830;6.914;2022-12-18T16:02:52;-1.70;99.90
52725;DHT22;38621;52.830;6.914;2022-12-18T16:05:19;-1.70;99.90
52725;DHT22;38621;52.830;6.914;2022-12-18T16:07:46;-1.70;99.90
52725;DHT22;38621;52.830;6.914;2022-12-18T16:10:12;-1.70;99.90
52725;DHT22;38621;52.830;6.914;2022-12-18T16:12:38;-1.30;99.90
52725;DHT22;38621;52.830;6.914;2022-12-18T16:15:05;-1.70;99.90
52725;DHT22;38621;52.830;6.914;2022-12-18T16:17:31;-1.70;99.90
52725;DHT22;38621;52.830;6.914;2022-12-18T16:19:57;-1.60;99.90
52725;DHT22;38621;52.830;6.914;2022-12-18T16:22:25;-1.60;99.90
52725;DHT22;38621;52.830;6.914;2022-12-18T16:24:53;-1.70;99.90
52725;DHT22;38621;52.830;6.914;2022-12-18T16:27:22;-1.70;99.90
52725;DHT22;38621;52.830;6.914;2022-12-18T16:29:48;-1.70;99.90
52725;DHT22;38621;52.830;6.914;2022-12-18T16:32:17;-1.70;99.90
52725;DHT22;38621;52.830;6.914;2022-12-18T16:34:43;-1.70;99.90
52725;DHT22;38621;52.830;6.914;2022-12-18T16:37:11;-1.70;99.90
52725;DHT22;38621;52.830;6.914;2022-12-18T16:39:38;-1.70;99.90
52725;DHT22;38621;52.830;6.914;2022-12-18T16:42:09;-1.70;99.90
52725;DHT22;38621;52.830;6.914;2022-12-18T16:44:38;-0.40;99.90
52725;DHT22;38621;52.830;6.914;2022-12-18T16:47:03;-1.70;99.90
52725;DHT22;38621;52.830;6.914;2022-12-18T16:49:29;-1.60;99.90
52725;DHT22;38621;52.830;6.914;2022-12-18T16:51:56;-1.70;99.90
52725;DHT22;38621;52.830;6.914;2022-12-18T16:54:22;-1.70;99.90
52725;DHT22;38621;52.830;6.914;2022-12-18T16:56:47;-1.60;99.90
52725;DHT22;38621;52.830;6.914;2022-12-18T16:59:15;-1.60;99.90
52725;DHT22;38621;52.830;6.914;2022-12-18T17:01:41;-1.60;99.90
52725;DHT22;38621;52.830;6.914;2022-12-18T17:04:07;-1.20;99.90
52725;DHT22;38621;52.830;6.914;2022-12-18T17:06:35;-1.20;99.90
52725;DHT22;38621;52.830;6.914;2022-12-18T17:09:06;-1.50;99.90
52725;DHT22;38621;52.830;6.914;2022-12-18T17:11:33;-1.50;99.90
52725;DHT22;38621;52.830;6.914;2022-12-18T17:14:04;-1.50;99.90
52725;DHT22;38621;52.830;6.914;2022-12-18T17:16:30;-1.50;99.90
52725;DHT22;38621;52.830;6.914;2022-12-18T17:18:56;-1.50;99.90
52725;DHT22;38621;52.830;6.914;2022-12-18T17:21:21;-1.50;99.90
52725;DHT22;38621;52.830;6.914;2022-12-18T17:23:47;-0.50;99.90
52725;DHT22;38621;52.830;6.914;2022-12-18T17:26:13;-1.40;99.90
52725;DHT22;38621;52.830;6.914;2022-12-18T17:28:40;-2.40;99.90
52725;DHT22;38621;52.830;6.914;2022-12-18T17:31:20;-1.40;99.90
52725;DHT22;38621;52.830;6.914;2022-12-18T17:33:47;-1.40;99.90
52725;DHT22;38621;52.830;6.914;2022-12-18T17:36:13;-1.40;99.90
52725;DHT22;38621;52.830;6.914;2022-12-18T17:38:40;-0.70;99.90
52725;DHT22;38621;52.830;6.914;2022-12-18T17:41:07;-1.40;99.90
52725;DHT22;38621;52.830;6.914;2022-12-18T17:43:33;-1.40;99.90
52725;DHT22;38621;52.830;6.914;2022-12-18T17:46:04;-1.30;99.90
52725;DHT22;38621;52.830;6.914;2022-12-18T17:48:32;-1.40;99.90
52725;DHT22;38621;52.830;6.914;2022-12-18T17:51:02;-1.40;99.90